sensor_id;sensor_type;location;lat;lon;timestamp;pressure;altitude;pressure_sealevel;temperature;humidity
74680;BME280;63211;48.548;2.704;2024-01-30T00:01:51;101956.81;;;19.30;45.79
74680;BME280;63211;48.548;2.704;2024-01-30T00:04:17;101945.00;;;19.22;45.67
74680;BME280;63211;48.548;2.704;2024-01-30T00:06:44;101910.84;;;18.99;45.44
74680;BME280;63211;48.548;2.704;2024-01-30T00:09:12;101954.50;;;19.27;45.48
74680;BME280;63211;48.548;2.704;2024-01-30T00:11:39;101949.81;;;19.20;45.41
74680;BME280;63211;48.548;2.704;2024-01-30T00:14:06;101949.81;;;19.20;45.16
74680;BME280;63211;48.548;2.704;2024-01-30T00:16:32;101942.03;;;19.17;45.49
74680;BME280;63211;48.548;2.704;2024-01-30T00:18:59;101956.78;;;19.23;45.16
74680;BME280;63211;48.548;2.704;2024-01-30T00:21:27;101951.06;;;19.18;45.47
74680;BME280;63211;48.548;2.704;2024-01-30T00:23:54;101931.28;;;19.09;45.22
74680;BME280;63211;48.548;2.704;2024-01-30T00:26:21;101950.88;;;19.19;45.25
74680;BME280;63211;48.548;2.704;2024-01-30T00:28:48;101956.97;;;19.21;45.77
74680;BME280;63211;48.548;2.704;2024-01-30T00:31:15;101954.03;;;19.23;46.06
74680;BME280;63211;48.548;2.704;2024-01-30T00:33:41;101953.84;;;19.25;46.18
74680;BME280;63211;48.548;2.704;2024-01-30T00:36:09;101950.91;;;19.26;46.41
74680;BME280;63211;48.548;2.704;2024-01-30T00:38:36;101952.16;;;19.23;46.51
74680;BME280;63211;48.548;2.704;2024-01-30T00:41:03;101961.63;;;19.28;46.45
74680;BME280;63211;48.548;2.704;2024-01-30T00:43:31;101961.63;;;19.28;46.33
74680;BME280;63211;48.548;2.704;2024-01-30T00:45:58;101965.41;;;19.27;46.50
74680;BME280;63211;48.548;2.704;2024-01-30T00:48:24;101951.31;;;19.23;46.23
74680;BME280;63211;48.548;2.704;2024-01-30T00:50:51;101958.47;;;19.24;46.09
74680;BME280;63211;48.548;2.704;2024-01-30T00:53:18;101961.41;;;19.22;45.74
74680;BME280;63211;48.548;2.704;2024-01-30T00:55:44;101963.28;;;19.22;45.78
74680;BME280;63211;48.548;2.704;2024-01-30T00:58:11;101965.16;;;19.21;45.58
74680;BME280;63211;48.548;2.704;2024-01-30T01:00:39;101964.72;;;19.18;45.53
74680;BME280;63211;48.548;2.704;2024-01-30T01:03:06;101955.88;;;19.16;45.78
74680;BME280;63211;48.548;2.704;2024-01-30T01:05:32;101957.56;;;19.17;45.48
74680;BME280;63211;48.548;2.704;2024-01-30T01:07:59;101965.75;;;19.17;45.43
74680;BME280;63211;48.548;2.704;2024-01-30T01:10:26;101963.88;;;19.17;45.57
74680;BME280;63211;48.548;2.704;2024-01-30T01:12:53;101954.84;;;19.17;45.92
74680;BME280;63211;48.548;2.704;2024-01-30T01:15:20;101947.25;;;19.12;46.27
74680;BME280;63211;48.548;2.704;2024-01-30T01:17:47;101943.06;;;19.10;46.56
74680;BME280;63211;48.548;2.704;2024-01-30T01:20:14;101952.34;;;19.22;47.09
74680;BME280;63211;48.548;2.704;2024-01-30T01:22:41;101952.16;;;19.23;47.08
74680;BME280;63211;48.548;2.704;2024-01-30T01:25:08;101931.50;;;19.14;46.88
74680;BME280;63211;48.548;2.704;2024-01-30T01:27:35;101949.22;;;19.25;47.08
74680;BME280;63211;48.548;2.704;2024-01-30T01:30:08;101945.66;;;19.25;46.93
74680;BME280;63211;48.548;2.704;2024-01-30T01:32:35;101955.53;;;19.26;46.71
74680;BME280;63211;48.548;2.704;2024-01-30T01:35:03;101949.44;;;19.23;46.53
74680;BME280;63211;48.548;2.704;2024-01-30T01:37:30;101946.00;;;19.15;46.83
74680;BME280;63211;48.548;2.704;2024-01-30T01:39:57;101951.72;;;19.20;45.97
74680;BME280;63211;48.548;2.704;2024-01-30T01:42:24;101948.13;;;19.19;45.90
74680;BME280;63211;48.548;2.704;2024-01-30T01:44:50;101956.28;;;19.13;45.90
74680;BME280;63211;48.548;2.704;2024-01-30T01:47:17;101954.81;;;19.10;45.48
74680;BME280;63211;48.548;2.704;2024-01-30T01:49:44;101953.97;;;19.10;45.50
74680;BME280;63211;48.548;2.704;2024-01-30T01:52:12;101972.25;;;19.16;45.88
74680;BME280;63211;48.548;2.704;2024-01-30T01:54:38;101966.81;;;19.16;46.14
74680;BME280;63211;48.548;2.704;2024-01-30T01:57:05;101965.31;;;19.13;46.44
74680;BME280;63211;48.548;2.704;2024-01-30T01:59:32;101971.03;;;19.18;46.96
74680;BME280;63211;48.548;2.704;2024-01-30T02:01:59;101963.69;;;19.19;47.34
74680;BME280;63211;48.548;2.704;2024-01-30T02:04:27;101970.81;;;19.20;47.65
74680;BME280;63211;48.548;2.704;2024-01-30T02:06:53;101964.78;;;19.25;47.88
74680;BME280;63211;48.548;2.704;2024-01-30T02:09:21;101968.34;;;19.25;47.57
74680;BME280;63211;48.548;2.704;2024-01-30T02:11:48;101976.34;;;19.27;47.74
74680;BME280;63211;48.548;2.704;2024-01-30T02:14:15;101969.00;;;19.27;47.66
74680;BME280;63211;48.548;2.704;2024-01-30T02:16:41;101946.84;;;19.15;47.66
74680;BME280;63211;48.548;2.704;2024-01-30T02:19:08;101955.47;;;19.19;47.24
74680;BME280;63211;48.548;2.704;2024-01-30T02:21:36;101958.66;;;19.22;46.78
74680;BME280;63211;48.548;2.704;2024-01-30T02:24:03;101960.94;;;19.19;46.70
74680;BME280;63211;48.548;2.704;2024-01-30T02:26:31;101962.00;;;19.18;46.40
74680;BME280;63211;48.548;2.704;2024-01-30T02:28:57;101959.06;;;19.19;46.09
74680;BME280;63211;48.548;2.704;2024-01-30T02:31:25;101952.31;;;19.15;46.17
74680;BME280;63211;48.548;2.704;2024-01-30T02:33:51;101956.53;;;19.18;46.12
74680;BME280;63211;48.548;2.704;2024-01-30T02:36:18;101956.94;;;19.15;45.74
74680;BME280;63211;48.548;2.704;2024-01-30T02:38:46;101950.63;;;19.14;46.21
74680;BME280;63211;48.548;2.704;2024-01-30T02:41:12;101954.00;;;19.16;46.20
74680;BME280;63211;48.548;2.704;2024-01-30T02:43:39;101947.69;;;19.16;46.73
74680;BME280;63211;48.548;2.704;2024-01-30T02:46:06;101951.72;;;19.20;46.95
74680;BME280;63211;48.548;2.704;2024-01-30T02:48:33;101959.72;;;19.21;47.52
74680;BME280;63211;48.548;2.704;2024-01-30T02:50:59;101947.75;;;19.22;47.63
74680;BME280;63211;48.548;2.704;2024-01-30T02:53:25;101949.22;;;19.25;47.64
74680;BME280;63211;48.548;2.704;2024-01-30T02:55:53;101950.91;;;19.26;47.62
74680;BME280;63211;48.548;2.704;2024-01-30T02:58:19;101948.19;;;19.26;47.74
74680;BME280;63211;48.548;2.704;2024-01-30T03:00:46;101940.19;;;19.25;47.32
74680;BME280;63211;48.548;2.704;2024-01-30T03:03:13;101941.88;;;19.26;47.23
74680;BME280;63211;48.548;2.704;2024-01-30T03:05:39;101925.66;;;19.17;47.09
74680;BME280;63211;48.548;2.704;2024-01-30T03:08:06;101935.78;;;19.23;46.77
74680;BME280;63211;48.548;2.704;2024-01-30T03:10:32;101930.72;;;19.20;46.62
74680;BME280;63211;48.548;2.704;2024-01-30T03:13:00;101935.97;;;19.22;46.45
74680;BME280;63211;48.548;2.704;2024-01-30T03:15:27;101935.72;;;19.17;46.38
74680;BME280;63211;48.548;2.704;2024-01-30T03:17:53;101920.19;;;19.11;46.15
74680;BME280;63211;48.548;2.704;2024-01-30T03:20:20;101948.34;;;19.18;46.50
74680;BME280;63211;48.548;2.704;2024-01-30T03:22:47;101940.53;;;19.15;46.63
74680;BME280;63211;48.548;2.704;2024-01-30T03:25:13;101946.84;;;19.15;47.10
74680;BME280;63211;48.548;2.704;2024-01-30T03:27:40;101943.91;;;19.17;47.24
74680;BME280;63211;48.548;2.704;2024-01-30T03:30:09;101943.31;;;19.21;47.75
74680;BME280;63211;48.548;2.704;2024-01-30T03:32:35;101954.88;;;19.23;47.77
74680;BME280;63211;48.548;2.704;2024-01-30T03:35:02;101949.22;;;19.25;47.96
74680;BME280;63211;48.548;2.704;2024-01-30T03:37:29;101949.88;;;19.27;48.04
74680;BME280;63211;48.548;2.704;2024-01-30T03:39:55;101949.88;;;19.27;47.79
74680;BME280;63211;48.548;2.704;2024-01-30T03:42:22;101959.75;;;19.28;47.79
74680;BME280;63211;48.548;2.704;2024-01-30T03:44:49;101945.25;;;19.28;47.39
74680;BME280;63211;48.548;2.704;2024-01-30T03:47:18;101956.19;;;19.28;47.48
74680;BME280;63211;48.548;2.704;2024-01-30T03:49:45;101955.53;;;19.26;47.29
74680;BME280;63211;48.548;2.704;2024-01-30T03:52:12;101946.69;;;19.23;46.92
74680;BME280;63211;48.548;2.704;2024-01-30T03:54:39;101955.09;;;19.22;46.62
74680;BME280;63211;48.548;2.704;2024-01-30T03:57:05;101942.88;;;19.18;46.48
74680;BME280;63211;48.548;2.704;2024-01-30T03:59:32;101950.03;;;19.19;46.52
74680;BME280;63211;48.548;2.704;2024-01-30T04:01:59;101943.91;;;19.17;46.50
74680;BME280;63211;48.548;2.704;2024-01-30T04:04:27;101953.78;;;19.18;46.12
74680;BME280;63211;48.548;2.704;2024-01-30T04:06:53;101938.44;;;19.10;46.21
74680;BME280;63211;48.548;2.704;2024-01-30T04:09:20;101951.25;;;19.16;46.82
74680;BME280;63211;48.548;2.704;2024-01-30T04:11:46;101950.88;;;19.19;47.23
74680;BME280;63211;48.548;2.704;2024-01-30T04:14:13;101951.50;;;19.21;47.66
74680;BME280;63211;48.548;2.704;2024-01-30T04:16:40;101954.03;;;19.23;47.81
74680;BME280;63211;48.548;2.704;2024-01-30T04:19:06;101943.53;;;19.20;48.04
74680;BME280;63211;48.548;2.704;2024-01-30T04:21:34;101949.44;;;19.23;47.97
74680;BME280;63211;48.548;2.704;2024-01-30T04:24:01;101941.25;;;19.23;47.71
74680;BME280;63211;48.548;2.704;2024-01-30T04:26:27;101945.25;;;19.28;47.91
74680;BME280;63211;48.548;2.704;2024-01-30T04:28:54;101948.84;;;19.28;47.79
74680;BME280;63211;48.548;2.704;2024-01-30T04:31:20;101948.00;;;19.28;47.69
74680;BME280;63211;48.548;2.704;2024-01-30T04:33:47;101917.44;;;19.11;47.48
74680;BME280;63211;48.548;2.704;2024-01-30T04:36:14;101948.19;;;19.26;47.00
74680;BME280;63211;48.548;2.704;2024-01-30T04:38:42;101947.53;;;19.24;46.79
74680;BME280;63211;48.548;2.704;2024-01-30T04:41:08;101945.00;;;19.22;46.28
74680;BME280;63211;48.548;2.704;2024-01-30T04:43:35;101961.59;;;19.21;46.34
74680;BME280;63211;48.548;2.704;2024-01-30T04:46:01;101956.13;;;19.21;46.18
74680;BME280;63211;48.548;2.704;2024-01-30T04:48:28;101955.47;;;19.19;46.14
74680;BME280;63211;48.548;2.704;2024-01-30T04:50:54;101952.75;;;19.19;46.21
74680;BME280;63211;48.548;2.704;2024-01-30T04:53:21;101954.63;;;19.18;46.58
74680;BME280;63211;48.548;2.704;2024-01-30T04:55:49;101956.34;;;19.19;46.71
74680;BME280;63211;48.548;2.704;2024-01-30T04:58:16;101956.13;;;19.21;47.19
74680;BME280;63211;48.548;2.704;2024-01-30T05:00:42;101945.81;;;19.16;47.53
74680;BME280;63211;48.548;2.704;2024-01-30T05:03:09;101963.09;;;19.23;47.60
74680;BME280;63211;48.548;2.704;2024-01-30T05:05:35;101961.84;;;19.26;47.95
74680;BME280;63211;48.548;2.704;2024-01-30T05:08:02;101967.50;;;19.25;47.70
74680;BME280;63211;48.548;2.704;2024-01-30T05:10:29;101965.22;;;19.28;47.83
74680;BME280;63211;48.548;2.704;2024-01-30T05:12:57;101973.41;;;19.28;47.96
74680;BME280;63211;48.548;2.704;2024-01-30T05:15:23;101972.38;;;19.29;47.57
74680;BME280;63211;48.548;2.704;2024-01-30T05:17:50;101962.25;;;19.23;47.65
74680;BME280;63211;48.548;2.704;2024-01-30T05:20:17;101971.72;;;19.27;47.60
74680;BME280;63211;48.548;2.704;2024-01-30T05:22:43;101858.44;;;18.54;46.80
74680;BME280;63211;48.548;2.704;2024-01-30T05:25:11;101981.16;;;19.25;46.61
74680;BME280;63211;48.548;2.704;2024-01-30T05:27:38;101979.00;;;19.20;46.43
74680;BME280;63211;48.548;2.704;2024-01-30T05:30:07;101972.50;;;19.21;45.91
74680;BME280;63211;48.548;2.704;2024-01-30T05:32:34;101977.97;;;19.21;46.18
74680;BME280;63211;48.548;2.704;2024-01-30T05:35:01;101981.75;;;19.20;46.24
74680;BME280;63211;48.548;2.704;2024-01-30T05:37:27;101985.53;;;19.19;46.65
74680;BME280;63211;48.548;2.704;2024-01-30T05:39:54;101986.38;;;19.19;46.90
74680;BME280;63211;48.548;2.704;2024-01-30T05:42:20;101952.19;;;18.96;47.55
74680;BME280;63211;48.548;2.704;2024-01-30T05:44:47;101990.59;;;19.22;47.79
74680;BME280;63211;48.548;2.704;2024-01-30T05:47:15;101999.41;;;19.24;47.79
74680;BME280;63211;48.548;2.704;2024-01-30T05:49:42;102002.78;;;19.26;47.95
74680;BME280;63211;48.548;2.704;2024-01-30T05:52:08;102000.72;;;19.28;48.19
74680;BME280;63211;48.548;2.704;2024-01-30T05:54:35;101992.91;;;19.25;48.05
74680;BME280;63211;48.548;2.704;2024-01-30T05:57:02;101985.19;;;19.29;47.97
74680;BME280;63211;48.548;2.704;2024-01-30T05:59:28;101996.94;;;19.29;47.89
74680;BME280;63211;48.548;2.704;2024-01-30T06:01:55;101976.28;;;19.20;47.49
74680;BME280;63211;48.548;2.704;2024-01-30T06:04:23;101994.41;;;19.28;47.53
74680;BME280;63211;48.548;2.704;2024-01-30T06:06:50;101997.53;;;19.25;47.62
74680;BME280;63211;48.548;2.704;2024-01-30T06:09:16;102006.78;;;19.23;46.57
74680;BME280;63211;48.548;2.704;2024-01-30T06:11:43;102002.41;;;19.29;47.20
74680;BME280;63211;48.548;2.704;2024-01-30T06:14:09;102003.66;;;19.33;46.45
74680;BME280;63211;48.548;2.704;2024-01-30T06:16:36;101996.09;;;19.29;46.83
74680;BME280;63211;48.548;2.704;2024-01-30T06:19:02;102001.75;;;19.27;46.57
74680;BME280;63211;48.548;2.704;2024-01-30T06:21:30;102010.59;;;19.29;46.06
74680;BME280;63211;48.548;2.704;2024-01-30T06:23:59;102013.53;;;19.28;46.05
74680;BME280;63211;48.548;2.704;2024-01-30T06:26:26;102004.69;;;19.26;45.34
74680;BME280;63211;48.548;2.704;2024-01-30T06:28:52;102007.63;;;19.24;46.57
74680;BME280;63211;48.548;2.704;2024-01-30T06:31:19;102018.78;;;19.29;46.88
74680;BME280;63211;48.548;2.704;2024-01-30T06:33:46;101992.66;;;19.20;47.23
74680;BME280;63211;48.548;2.704;2024-01-30T06:36:13;102016.69;;;19.31;47.75
74680;BME280;63211;48.548;2.704;2024-01-30T06:38:41;102013.78;;;19.33;47.55
74680;BME280;63211;48.548;2.704;2024-01-30T06:41:08;102007.47;;;19.32;47.17
74680;BME280;63211;48.548;2.704;2024-01-30T06:43:34;102006.19;;;19.28;47.75
74680;BME280;63211;48.548;2.704;2024-01-30T06:46:01;101953.41;;;18.93;47.43
74680;BME280;63211;48.548;2.704;2024-01-30T06:48:27;102018.16;;;19.34;47.28
74680;BME280;63211;48.548;2.704;2024-01-30T06:50:54;102023.84;;;19.32;47.49
74680;BME280;63211;48.548;2.704;2024-01-30T06:53:22;102023.44;;;19.35;47.47
74680;BME280;63211;48.548;2.704;2024-01-30T06:55:51;101984.88;;;19.17;47.07
74680;BME280;63211;48.548;2.704;2024-01-30T06:58:18;102024.47;;;19.34;46.94
74680;BME280;63211;48.548;2.704;2024-01-30T07:00:44;102027.19;;;19.34;47.27
74680;BME280;63211;48.548;2.704;2024-01-30T07:03:11;102029.94;;;19.34;47.05
74680;BME280;63211;48.548;2.704;2024-01-30T07:05:37;102029.50;;;19.31;47.06
74680;BME280;63211;48.548;2.704;2024-01-30T07:08:04;102035.38;;;19.28;46.78
74680;BME280;63211;48.548;2.704;2024-01-30T07:10:31;102045.25;;;19.29;46.50
74680;BME280;63211;48.548;2.704;2024-01-30T07:13:00;102046.09;;;19.29;46.66
74680;BME280;63211;48.548;2.704;2024-01-30T07:15:26;101971.97;;;18.76;46.92
74680;BME280;63211;48.548;2.704;2024-01-30T07:17:53;102054.47;;;19.28;46.48
74680;BME280;63211;48.548;2.704;2024-01-30T07:20:19;102059.94;;;19.28;46.79
74680;BME280;63211;48.548;2.704;2024-01-30T07:22:46;102072.94;;;19.26;46.65
74680;BME280;63211;48.548;2.704;2024-01-30T07:25:13;102066.63;;;19.25;46.68
74680;BME280;63211;48.548;2.704;2024-01-30T07:27:39;102081.34;;;19.24;46.70
74680;BME280;63211;48.548;2.704;2024-01-30T07:30:08;102077.38;;;19.27;45.70
74680;BME280;63211;48.548;2.704;2024-01-30T07:32:34;102076.59;;;19.33;45.69
74680;BME280;63211;48.548;2.704;2024-01-30T07:35:01;102077.25;;;19.41;45.43
74680;BME280;63211;48.548;2.704;2024-01-30T07:37:27;102080.25;;;19.46;44.88
74680;BME280;63211;48.548;2.704;2024-01-30T07:39:54;102095.22;;;19.50;44.92
74680;BME280;63211;48.548;2.704;2024-01-30T07:42:20;102095.22;;;19.50;44.92
74680;BME280;63211;48.548;2.704;2024-01-30T07:44:47;102090.78;;;19.49;45.60
74680;BME280;63211;48.548;2.704;2024-01-30T07:47:15;102089.94;;;19.49;46.46
74680;BME280;63211;48.548;2.704;2024-01-30T07:49:41;102102.09;;;19.46;46.62
74680;BME280;63211;48.548;2.704;2024-01-30T07:52:08;102101.66;;;19.43;46.04
74680;BME280;63211;48.548;2.704;2024-01-30T07:54:35;102113.88;;;19.47;46.22
74680;BME280;63211;48.548;2.704;2024-01-30T07:57:04;102110.50;;;19.45;46.96
74680;BME280;63211;48.548;2.704;2024-01-30T07:59:30;102109.25;;;19.47;46.91
74680;BME280;63211;48.548;2.704;2024-01-30T08:01:57;102114.16;;;19.52;46.85
74680;BME280;63211;48.548;2.704;2024-01-30T08:04:25;102119.84;;;19.57;43.92
74680;BME280;63211;48.548;2.704;2024-01-30T08:06:51;102119.25;;;19.62;44.14
74680;BME280;63211;48.548;2.704;2024-01-30T08:09:18;102109.81;;;19.64;43.66
74680;BME280;63211;48.548;2.704;2024-01-30T08:11:45;102125.16;;;19.65;43.16
74680;BME280;63211;48.548;2.704;2024-01-30T08:14:11;102127.50;;;19.68;43.06
74680;BME280;63211;48.548;2.704;2024-01-30T08:16:39;102130.44;;;19.67;45.52
74680;BME280;63211;48.548;2.704;2024-01-30T08:19:05;102133.44;;;19.78;44.53
74680;BME280;63211;48.548;2.704;2024-01-30T08:21:33;102130.88;;;19.70;45.25
74680;BME280;63211;48.548;2.704;2024-01-30T08:24:02;102131.72;;;19.71;45.16
74680;BME280;63211;48.548;2.704;2024-01-30T08:26:29;102148.13;;;19.71;45.38
74680;BME280;63211;48.548;2.704;2024-01-30T08:28:56;102142.47;;;19.72;45.52
74680;BME280;63211;48.548;2.704;2024-01-30T08:31:22;102146.44;;;19.70;44.87
74680;BME280;63211;48.548;2.704;2024-01-30T08:33:49;102130.56;;;19.59;44.16
74680;BME280;63211;48.548;2.704;2024-01-30T08:36:17;102143.25;;;19.66;45.16
74680;BME280;63211;48.548;2.704;2024-01-30T08:38:45;102155.88;;;19.67;46.02
74680;BME280;63211;48.548;2.704;2024-01-30T08:41:12;102151.25;;;19.68;44.80
74680;BME280;63211;48.548;2.704;2024-01-30T08:43:38;102154.47;;;19.78;45.91
74680;BME280;63211;48.548;2.704;2024-01-30T08:46:05;102150.50;;;19.80;45.88
74680;BME280;63211;48.548;2.704;2024-01-30T08:48:32;102154.06;;;19.81;44.12
74680;BME280;63211;48.548;2.704;2024-01-30T08:50:58;102154.97;;;19.88;44.26
74680;BME280;63211;48.548;2.704;2024-01-30T08:53:25;102158.59;;;19.95;43.15
74680;BME280;63211;48.548;2.704;2024-01-30T08:55:53;102163.47;;;20.06;44.15
74680;BME280;63211;48.548;2.704;2024-01-30T08:58:19;102167.72;;;20.09;43.02
74680;BME280;63211;48.548;2.704;2024-01-30T09:00:46;102161.00;;;20.11;43.98
74680;BME280;63211;48.548;2.704;2024-01-30T09:03:13;102167.47;;;20.38;40.70
74680;BME280;63211;48.548;2.704;2024-01-30T09:05:39;102173.16;;;20.43;42.89
74680;BME280;63211;48.548;2.704;2024-01-30T09:08:06;102178.03;;;20.48;42.84
74680;BME280;63211;48.548;2.704;2024-01-30T09:10:32;102172.41;;;20.63;42.98
74680;BME280;63211;48.548;2.704;2024-01-30T09:13:00;102173.66;;;20.60;42.18
74680;BME280;63211;48.548;2.704;2024-01-30T09:15:27;102181.91;;;20.67;45.34
74680;BME280;63211;48.548;2.704;2024-01-30T09:17:53;102178.84;;;20.42;48.93
74680;BME280;63211;48.548;2.704;2024-01-30T09:20:20;102182.94;;;20.24;48.60
74680;BME280;63211;48.548;2.704;2024-01-30T09:22:48;102185.63;;;20.18;50.22
74680;BME280;63211;48.548;2.704;2024-01-30T09:25:15;102147.66;;;19.95;51.50
74680;BME280;63211;48.548;2.704;2024-01-30T09:27:41;102178.91;;;20.14;50.22
74680;BME280;63211;48.548;2.704;2024-01-30T09:30:10;102189.94;;;19.99;50.55
74680;BME280;63211;48.548;2.704;2024-01-30T09:32:37;102185.69;;;19.97;50.56
74680;BME280;63211;48.548;2.704;2024-01-30T09:35:04;102188.66;;;19.95;49.59
74680;BME280;63211;48.548;2.704;2024-01-30T09:37:31;102201.38;;;20.09;52.57
74680;BME280;63211;48.548;2.704;2024-01-30T09:39:58;102201.81;;;20.13;49.83
74680;BME280;63211;48.548;2.704;2024-01-30T09:42:28;102198.19;;;20.06;51.49
74680;BME280;63211;48.548;2.704;2024-01-30T09:44:58;102208.59;;;20.23;49.53
74680;BME280;63211;48.548;2.704;2024-01-30T09:47:26;102214.72;;;20.25;49.54
74680;BME280;63211;48.548;2.704;2024-01-30T09:49:53;102221.81;;;20.20;50.08
74680;BME280;63211;48.548;2.704;2024-01-30T09:52:19;102216.19;;;20.28;49.36
74680;BME280;63211;48.548;2.704;2024-01-30T09:54:47;102221.88;;;20.27;52.39
74680;BME280;63211;48.548;2.704;2024-01-30T09:57:15;102226.44;;;20.47;49.33
74680;BME280;63211;48.548;2.704;2024-01-30T09:59:42;102232.72;;;20.41;49.63
74680;BME280;63211;48.548;2.704;2024-01-30T10:02:09;102231.06;;;20.47;49.22
74680;BME280;63211;48.548;2.704;2024-01-30T10:04:37;102241.22;;;20.53;49.50
74680;BME280;63211;48.548;2.704;2024-01-30T10:07:04;102230.66;;;20.50;49.69
74680;BME280;63211;48.548;2.704;2024-01-30T10:09:32;102237.53;;;20.39;49.78
74680;BME280;63211;48.548;2.704;2024-01-30T10:11:58;102243.31;;;20.51;49.10
74680;BME280;63211;48.548;2.704;2024-01-30T10:14:25;102239.31;;;20.60;48.75
74680;BME280;63211;48.548;2.704;2024-01-30T10:16:51;102242.66;;;20.49;48.82
74680;BME280;63211;48.548;2.704;2024-01-30T10:19:18;102249.31;;;20.74;48.73
74680;BME280;63211;48.548;2.704;2024-01-30T10:21:47;102247.66;;;20.86;47.56
74680;BME280;63211;48.548;2.704;2024-01-30T10:24:13;102245.78;;;20.87;47.04
74680;BME280;63211;48.548;2.704;2024-01-30T10:26:40;102254.69;;;20.61;49.21
74680;BME280;63211;48.548;2.704;2024-01-30T10:29:09;102253.66;;;20.55;49.51
74680;BME280;63211;48.548;2.704;2024-01-30T10:31:36;102258.63;;;20.86;47.03
74680;BME280;63211;48.548;2.704;2024-01-30T10:34:03;102263.00;;;20.74;46.85
74680;BME280;63211;48.548;2.704;2024-01-30T10:36:30;102263.69;;;20.48;48.02
74680;BME280;63211;48.548;2.704;2024-01-30T10:39:01;102265.97;;;20.45;47.90
74680;BME280;63211;48.548;2.704;2024-01-30T10:41:31;102271.94;;;20.55;47.22
74680;BME280;63211;48.548;2.704;2024-01-30T10:44:08;102265.63;;;20.54;47.23
74680;BME280;63211;48.548;2.704;2024-01-30T10:46:35;102273.34;;;20.44;47.10
74680;BME280;63211;48.548;2.704;2024-01-30T10:49:04;102267.69;;;20.46;47.70
74680;BME280;63211;48.548;2.704;2024-01-30T10:51:31;102268.59;;;20.59;47.03
74680;BME280;63211;48.548;2.704;2024-01-30T10:53:58;102265.75;;;20.81;48.17
74680;BME280;63211;48.548;2.704;2024-01-30T10:56:28;102264.84;;;20.67;47.21
74680;BME280;63211;48.548;2.704;2024-01-30T10:58:56;102280.19;;;20.62;47.26
74680;BME280;63211;48.548;2.704;2024-01-30T11:01:24;102274.31;;;20.65;47.41
74680;BME280;63211;48.548;2.704;2024-01-30T11:03:51;102274.06;;;20.59;46.77
74680;BME280;63211;48.548;2.704;2024-01-30T11:06:18;102265.69;;;20.68;46.09
74680;BME280;63211;48.548;2.704;2024-01-30T11:09:00;102277.00;;;20.58;48.00
74680;BME280;63211;48.548;2.704;2024-01-30T11:11:28;102278.91;;;20.57;46.46
74680;BME280;63211;48.548;2.704;2024-01-30T11:13:55;102279.13;;;20.63;46.05
74680;BME280;63211;48.548;2.704;2024-01-30T11:16:21;102282.47;;;20.58;46.87
74680;BME280;63211;48.548;2.704;2024-01-30T11:18:50;102285.19;;;20.58;46.05
74680;BME280;63211;48.548;2.704;2024-01-30T11:21:17;102285.78;;;20.47;46.33
74680;BME280;63211;48.548;2.704;2024-01-30T11:23:43;102276.28;;;20.43;49.75
74680;BME280;63211;48.548;2.704;2024-01-30T11:26:10;102279.97;;;20.56;47.38
74680;BME280;63211;48.548;2.704;2024-01-30T11:28:38;102263.44;;;20.37;48.04
74680;BME280;63211;48.548;2.704;2024-01-30T11:31:05;102270.13;;;20.69;49.90
74680;BME280;63211;48.548;2.704;2024-01-30T11:33:32;102262.31;;;20.66;47.01
74680;BME280;63211;48.548;2.704;2024-01-30T11:36:00;102269.41;;;20.53;47.18
74680;BME280;63211;48.548;2.704;2024-01-30T11:38:28;102269.44;;;20.60;46.38
74680;BME280;63211;48.548;2.704;2024-01-30T11:40:55;102264.13;;;20.24;51.66
74680;BME280;63211;48.548;2.704;2024-01-30T11:43:22;102273.78;;;20.48;47.71
74680;BME280;63211;48.548;2.704;2024-01-30T11:45:50;102263.09;;;20.25;46.47
74680;BME280;63211;48.548;2.704;2024-01-30T11:48:17;102265.28;;;20.08;47.86
74680;BME280;63211;48.548;2.704;2024-01-30T11:50:43;102268.94;;;20.15;48.65
74680;BME280;63211;48.548;2.704;2024-01-30T11:53:11;102266.72;;;20.04;48.21
74680;BME280;63211;48.548;2.704;2024-01-30T11:55:37;102270.50;;;20.03;48.90
74680;BME280;63211;48.548;2.704;2024-01-30T11:58:04;102263.44;;;19.87;48.68
74680;BME280;63211;48.548;2.704;2024-01-30T12:00:31;102255.16;;;19.74;49.34
74680;BME280;63211;48.548;2.704;2024-01-30T12:02:59;102263.78;;;19.78;49.17
74680;BME280;63211;48.548;2.704;2024-01-30T12:05:27;102266.28;;;19.73;49.60
74680;BME280;63211;48.548;2.704;2024-01-30T12:07:54;102272.06;;;19.63;52.99
74680;BME280;63211;48.548;2.704;2024-01-30T12:10:24;102265.56;;;19.64;48.46
74680;BME280;63211;48.548;2.704;2024-01-30T12:12:50;102266.13;;;19.60;49.95
74680;BME280;63211;48.548;2.704;2024-01-30T12:15:18;102260.63;;;19.53;50.29
74680;BME280;63211;48.548;2.704;2024-01-30T12:17:46;102255.38;;;19.51;49.96
74680;BME280;63211;48.548;2.704;2024-01-30T12:20:17;102256.28;;;19.44;50.79
74680;BME280;63211;48.548;2.704;2024-01-30T12:22:45;102256.09;;;19.45;50.99
74680;BME280;63211;48.548;2.704;2024-01-30T12:25:13;102257.13;;;19.44;50.93
74680;BME280;63211;48.548;2.704;2024-01-30T12:27:42;102256.28;;;19.44;50.95
74680;BME280;63211;48.548;2.704;2024-01-30T12:30:11;102258.19;;;19.43;51.42
74680;BME280;63211;48.548;2.704;2024-01-30T12:32:39;102257.72;;;19.40;53.56
74680;BME280;63211;48.548;2.704;2024-01-30T12:35:07;102257.34;;;19.43;51.99
74680;BME280;63211;48.548;2.704;2024-01-30T12:37:35;102260.81;;;19.51;50.87
74680;BME280;63211;48.548;2.704;2024-01-30T12:40:03;102261.66;;;19.52;51.75
74680;BME280;63211;48.548;2.704;2024-01-30T12:42:29;102257.91;;;19.53;51.16
74680;BME280;63211;48.548;2.704;2024-01-30T12:44:57;102259.28;;;19.49;52.06
74680;BME280;63211;48.548;2.704;2024-01-30T12:47:23;102258.63;;;19.47;51.41
74680;BME280;63211;48.548;2.704;2024-01-30T12:49:50;102260.44;;;19.40;51.66